sensor_id;sensor_type;location;lat;lon;timestamp;pressure;altitude;pressure_sealevel;temperature;humidity
46768;BME280;69007;48.978;18.066;2023-07-28T00:00:35;97030.13;;;17.99;96.06
46768;BME280;69007;48.978;18.066;2023-07-28T00:03:01;97031.91;;;18.03;94.35
46768;BME280;69007;48.978;18.066;2023-07-28T00:05:26;97031.56;;;18.05;94.23
46768;BME280;69007;48.978;18.066;2023-07-28T00:07:54;97018.31;;;17.98;92.23
46768;BME280;69007;48.978;18.066;2023-07-28T00:10:20;97016.84;;;18.01;91.75
46768;BME280;69007;48.978;18.066;2023-07-28T00:12:45;97028.13;;;18.08;91.83
46768;BME280;69007;48.978;18.066;2023-07-28T00:15:12;97014.88;;;18.10;91.51
46768;BME280;69007;48.978;18.066;2023-07-28T00:17:37;97001.44;;;18.00;92.39
46768;BME280;69007;48.978;18.066;2023-07-28T00:20:03;97002.59;;;17.99;94.24
46768;BME280;69007;48.978;18.066;2023-07-28T00:22:28;97028.00;;;18.04;94.67
46768;BME280;69007;48.978;18.066;2023-07-28T00:24:54;97020.06;;;18.03;93.03
46768;BME280;69007;48.978;18.066;2023-07-28T00:27:19;97011.31;;;18.01;93.18
46768;BME280;69007;48.978;18.066;2023-07-28T00:29:45;97001.47;;;17.91;92.06
46768;BME280;69007;48.978;18.066;2023-07-28T00:32:10;97008.75;;;17.96;91.90
46768;BME280;69007;48.978;18.066;2023-07-28T00:34:35;97015.56;;;17.98;92.19
46768;BME280;69007;48.978;18.066;2023-07-28T00:37:00;97027.38;;;17.99;91.78
46768;BME280;69007;48.978;18.066;2023-07-28T00:39:26;97019.91;;;17.99;91.91
46768;BME280;69007;48.978;18.066;2023-07-28T00:41:51;97011.84;;;17.94;92.15
46768;BME280;69007;48.978;18.066;2023-07-28T00:44:17;97019.44;;;17.97;91.95
46768;BME280;69007;48.978;18.066;2023-07-28T00:46:43;97022.06;;;17.94;91.42
46768;BME280;69007;48.978;18.066;2023-07-28T00:49:08;97017.97;;;18.00;93.19
46768;BME280;69007;48.978;18.066;2023-07-28T00:51:35;97002.28;;;17.92;94.35
46768;BME280;69007;48.978;18.066;2023-07-28T00:54:02;97002.28;;;17.92;95.40
46768;BME280;69007;48.978;18.066;2023-07-28T00:56:29;97009.41;;;17.93;95.10
46768;BME280;69007;48.978;18.066;2023-07-28T00:58:54;96979.78;;;17.81;96.20
46768;BME280;69007;48.978;18.066;2023-07-28T01:01:20;96999.69;;;17.86;96.04
46768;BME280;69007;48.978;18.066;2023-07-28T01:03:45;97004.88;;;17.88;96.24
46768;BME280;69007;48.978;18.066;2023-07-28T01:06:18;96982.38;;;17.86;97.23
46768;BME280;69007;48.978;18.066;2023-07-28T01:09:06;96992.75;;;17.80;98.37
46768;BME280;69007;48.978;18.066;2023-07-28T01:11:34;96990.81;;;17.81;97.47
46768;BME280;69007;48.978;18.066;2023-07-28T01:14:00;96976.56;;;17.70;96.45
46768;BME280;69007;48.978;18.066;2023-07-28T01:16:25;96984.00;;;17.78;97.36
46768;BME280;69007;48.978;18.066;2023-07-28T01:18:51;96976.25;;;17.72;98.82
46768;BME280;69007;48.978;18.066;2023-07-28T01:21:26;96988.88;;;17.73;100.00
46768;BME280;69007;48.978;18.066;2023-07-28T01:24:38;96981.59;;;17.68;100.00
46768;BME280;69007;48.978;18.066;2023-07-28T01:27:08;96982.91;;;17.62;100.00
46768;BME280;69007;48.978;18.066;2023-07-28T01:29:34;96969.19;;;17.53;100.00
46768;BME280;69007;48.978;18.066;2023-07-28T01:32:00;96970.63;;;17.59;100.00
46768;BME280;69007;48.978;18.066;2023-07-28T01:34:26;96965.81;;;17.47;100.00
46768;BME280;69007;48.978;18.066;2023-07-28T01:36:51;96962.56;;;17.45;100.00
46768;BME280;69007;48.978;18.066;2023-07-28T01:39:16;96977.31;;;17.41;100.00
46768;BME280;69007;48.978;18.066;2023-07-28T01:41:42;96967.28;;;17.36;100.00
46768;BME280;69007;48.978;18.066;2023-07-28T01:44:10;96941.06;;;17.30;100.00
46768;BME280;69007;48.978;18.066;2023-07-28T01:46:35;96958.38;;;17.39;100.00
46768;BME280;69007;48.978;18.066;2023-07-28T01:49:01;96933.81;;;17.34;100.00
46768;BME280;69007;48.978;18.066;2023-07-28T01:51:26;96935.09;;;17.28;100.00
46768;BME280;69007;48.978;18.066;2023-07-28T01:53:51;96955.63;;;17.30;100.00
46768;BME280;69007;48.978;18.066;2023-07-28T01:56:16;96939.63;;;17.24;100.00
46768;BME280;69007;48.978;18.066;2023-07-28T01:58:42;96965.81;;;17.30;100.00
46768;BME280;69007;48.978;18.066;2023-07-28T02:01:07;96959.38;;;17.26;100.00
46768;BME280;69007;48.978;18.066;2023-07-28T02:03:32;96955.63;;;17.30;100.00
46768;BME280;69007;48.978;18.066;2023-07-28T02:05:58;96941.91;;;17.22;100.00
46768;BME280;69007;48.978;18.066;2023-07-28T02:08:23;96956.44;;;17.31;100.00
46768;BME280;69007;48.978;18.066;2023-07-28T02:10:48;96961.94;;;17.31;100.00
46768;BME280;69007;48.978;18.066;2023-07-28T02:13:14;96980.88;;;17.33;100.00
46768;BME280;69007;48.978;18.066;2023-07-28T02:15:39;96986.03;;;17.25;100.00
46768;BME280;69007;48.978;18.066;2023-07-28T02:18:04;96986.88;;;17.26;100.00
46768;BME280;69007;48.978;18.066;2023-07-28T02:20:30;96982.81;;;17.23;100.00
46768;BME280;69007;48.978;18.066;2023-07-28T02:22:55;96976.34;;;17.28;100.00
46768;BME280;69007;48.978;18.066;2023-07-28T02:25:21;96970.53;;;17.29;100.00
46768;BME280;69007;48.978;18.066;2023-07-28T02:27:46;96949.50;;;17.25;100.00
46768;BME280;69007;48.978;18.066;2023-07-28T02:30:12;96953.19;;;17.29;100.00
46768;BME280;69007;48.978;18.066;2023-07-28T02:32:37;96944.97;;;17.20;100.00
46768;BME280;69007;48.978;18.066;2023-07-28T02:35:03;96975.38;;;17.33;100.00
46768;BME280;69007;48.978;18.066;2023-07-28T02:37:28;96963.56;;;17.32;100.00
46768;BME280;69007;48.978;18.066;2023-07-28T02:39:54;96969.88;;;17.33;100.00
46768;BME280;69007;48.978;18.066;2023-07-28T02:42:19;96974.53;;;17.32;100.00
46768;BME280;69007;48.978;18.066;2023-07-28T02:44:44;96966.16;;;17.28;100.00
46768;BME280;69007;48.978;18.066;2023-07-28T02:47:10;96965.19;;;17.33;100.00
46768;BME280;69007;48.978;18.066;2023-07-28T02:49:35;96959.06;;;17.27;100.00
46768;BME280;69007;48.978;18.066;2023-07-28T02:52:00;96950.28;;;17.25;100.00
46768;BME280;69007;48.978;18.066;2023-07-28T02:54:29;96959.69;;;17.33;100.00
46768;BME280;69007;48.978;18.066;2023-07-28T02:56:55;96961.31;;;17.34;100.00
46768;BME280;69007;48.978;18.066;2023-07-28T02:59:21;96965.81;;;17.30;100.00
46768;BME280;69007;48.978;18.066;2023-07-28T03:01:46;96982.78;;;17.32;100.00
46768;BME280;69007;48.978;18.066;2023-07-28T03:04:12;96978.78;;;17.29;100.00
46768;BME280;69007;48.978;18.066;2023-07-28T03:06:37;96967.94;;;17.24;100.00
46768;BME280;69007;48.978;18.066;2023-07-28T03:09:02;96979.91;;;17.20;100.00
46768;BME280;69007;48.978;18.066;2023-07-28T03:11:28;96948.84;;;17.10;100.00
46768;BME280;69007;48.978;18.066;2023-07-28T03:13:53;96949.03;;;17.05;100.00
46768;BME280;69007;48.978;18.066;2023-07-28T03:16:18;96965.81;;;17.12;100.00
46768;BME280;69007;48.978;18.066;2023-07-28T03:18:44;96951.75;;;17.14;100.00
46768;BME280;69007;48.978;18.066;2023-07-28T03:21:09;96971.66;;;17.20;100.00
46768;BME280;69007;48.978;18.066;2023-07-28T03:23:35;96952.59;;;17.15;100.00
46768;BME280;69007;48.978;18.066;2023-07-28T03:26:00;96953.09;;;17.08;100.00
46768;BME280;69007;48.978;18.066;2023-07-28T03:28:26;96949.81;;;17.06;100.00
46768;BME280;69007;48.978;18.066;2023-07-28T03:30:51;96973.09;;;17.17;100.00
46768;BME280;69007;48.978;18.066;2023-07-28T03:33:16;96971.66;;;17.20;100.00
46768;BME280;69007;48.978;18.066;2023-07-28T03:35:42;96980.38;;;17.22;100.00
46768;BME280;69007;48.978;18.066;2023-07-28T03:38:07;96978.59;;;17.17;100.00
46768;BME280;69007;48.978;18.066;2023-07-28T03:40:33;96973.28;;;17.12;100.00
46768;BME280;69007;48.978;18.066;2023-07-28T03:42:58;96987.03;;;17.12;100.00
46768;BME280;69007;48.978;18.066;2023-07-28T03:45:24;96980.72;;;17.20;100.00
46768;BME280;69007;48.978;18.066;2023-07-28T03:47:49;96982.34;;;17.21;100.00
46768;BME280;69007;48.978;18.066;2023-07-28T03:50:14;96971.19;;;17.18;100.00
46768;BME280;69007;48.978;18.066;2023-07-28T03:52:40;96977.78;;;17.25;100.00
46768;BME280;69007;48.978;18.066;2023-07-28T03:55:05;96978.63;;;17.26;100.00
46768;BME280;69007;48.978;18.066;2023-07-28T03:57:31;96982.66;;;17.28;100.00
46768;BME280;69007;48.978;18.066;2023-07-28T03:59:56;96962.94;;;17.18;100.00
46768;BME280;69007;48.978;18.066;2023-07-28T04:02:21;96973.59;;;17.28;100.00
46768;BME280;69007;48.978;18.066;2023-07-28T04:04:47;96973.59;;;17.28;100.00
46768;BME280;69007;48.978;18.066;2023-07-28T04:07:18;96977.81;;;17.34;100.00
46768;BME280;69007;48.978;18.066;2023-07-28T04:09:43;96971.50;;;17.25;100.00
46768;BME280;69007;48.978;18.066;2023-07-28T04:12:08;96971.19;;;17.18;100.00
46768;BME280;69007;48.978;18.066;2023-07-28T04:14:34;96969.25;;;17.18;100.00
46768;BME280;69007;48.978;18.066;2023-07-28T04:16:59;96948.38;;;17.17;100.00
46768;BME280;69007;48.978;18.066;2023-07-28T04:19:24;96953.88;;;17.17;100.00
46768;BME280;69007;48.978;18.066;2023-07-28T04:21:50;96980.69;;;17.29;100.00
46768;BME280;69007;48.978;18.066;2023-07-28T04:24:15;96979.72;;;17.34;100.00
46768;BME280;69007;48.978;18.066;2023-07-28T04:26:40;96960.81;;;17.32;100.00
46768;BME280;69007;48.978;18.066;2023-07-28T04:29:07;96946.88;;;17.37;100.00
46768;BME280;69007;48.978;18.066;2023-07-28T04:31:33;96959.97;;;17.40;100.00
46768;BME280;69007;48.978;18.066;2023-07-28T04:33:58;96954.00;;;17.38;100.00
46768;BME280;69007;48.978;18.066;2023-07-28T04:36:23;96943.19;;;17.33;100.00
46768;BME280;69007;48.978;18.066;2023-07-28T04:38:49;96965.31;;;17.37;100.00
46768;BME280;69007;48.978;18.066;2023-07-28T04:41:14;96951.59;;;17.28;100.00
46768;BME280;69007;48.978;18.066;2023-07-28T04:43:40;96973.09;;;17.35;100.00
46768;BME280;69007;48.978;18.066;2023-07-28T04:46:05;96988.63;;;17.39;100.00
46768;BME280;69007;48.978;18.066;2023-07-28T04:48:30;96960.31;;;17.30;100.00
46768;BME280;69007;48.978;18.066;2023-07-28T04:50:55;96955.31;;;17.32;100.00
46768;BME280;69007;48.978;18.066;2023-07-28T04:53:21;96964.53;;;17.36;100.00
46768;BME280;69007;48.978;18.066;2023-07-28T04:55:46;96979.56;;;17.39;100.00
46768;BME280;69007;48.978;18.066;2023-07-28T04:58:11;96966.97;;;17.38;100.00
46768;BME280;69007;48.978;18.066;2023-07-28T05:00:37;96967.09;;;17.41;100.00
46768;BME280;69007;48.978;18.066;2023-07-28T05:03:02;96971.97;;;17.36;100.00
46768;BME280;69007;48.978;18.066;2023-07-28T05:05:29;96986.19;;;17.46;100.00
46768;BME280;69007;48.978;18.066;2023-07-28T05:07:54;96965.63;;;17.53;100.00
46768;BME280;69007;48.978;18.066;2023-07-28T05:10:19;96976.50;;;17.49;100.00
46768;BME280;69007;48.978;18.066;2023-07-28T05:12:45;96952.56;;;17.41;100.00
46768;BME280;69007;48.978;18.066;2023-07-28T05:15:10;96958.69;;;17.46;100.00
46768;BME280;69007;48.978;18.066;2023-07-28T05:17:36;96964.47;;;17.54;100.00
46768;BME280;69007;48.978;18.066;2023-07-28T05:20:02;96968.72;;;17.51;100.00
46768;BME280;69007;48.978;18.066;2023-07-28T05:22:28;96961.09;;;17.48;100.00
46768;BME280;69007;48.978;18.066;2023-07-28T05:24:53;96983.41;;;17.64;100.00
46768;BME280;69007;48.978;18.066;2023-07-28T05:27:18;96992.13;;;17.66;100.00
46768;BME280;69007;48.978;18.066;2023-07-28T05:29:44;96983.59;;;17.59;100.00
46768;BME280;69007;48.978;18.066;2023-07-28T05:32:09;96996.34;;;17.63;100.00
46768;BME280;69007;48.978;18.066;2023-07-28T05:34:35;96999.41;;;17.71;100.00
46768;BME280;69007;48.978;18.066;2023-07-28T05:37:00;96988.72;;;17.69;100.00
46768;BME280;69007;48.978;18.066;2023-07-28T05:39:25;97003.25;;;17.78;100.00
46768;BME280;69007;48.978;18.066;2023-07-28T05:41:51;96997.25;;;17.85;100.00
46768;BME280;69007;48.978;18.066;2023-07-28T05:44:16;96983.03;;;17.83;100.00
46768;BME280;69007;48.978;18.066;2023-07-28T05:46:42;96986.28;;;17.76;100.00
46768;BME280;69007;48.978;18.066;2023-07-28T05:49:07;96980.63;;;17.73;100.00
46768;BME280;69007;48.978;18.066;2023-07-28T05:51:32;97005.53;;;17.76;100.00
46768;BME280;69007;48.978;18.066;2023-07-28T05:53:58;97018.03;;;17.74;100.00
46768;BME280;69007;48.978;18.066;2023-07-28T05:56:23;97023.19;;;17.66;100.00
46768;BME280;69007;48.978;18.066;2023-07-28T05:58:49;96998.47;;;17.58;100.00
46768;BME280;69007;48.978;18.066;2023-07-28T06:01:15;97026.44;;;17.60;100.00
46768;BME280;69007;48.978;18.066;2023-07-28T06:03:40;97002.53;;;17.43;100.00
46768;BME280;69007;48.978;18.066;2023-07-28T06:06:06;97010.94;;;17.46;100.00
46768;BME280;69007;48.978;18.066;2023-07-28T06:08:32;97004.78;;;17.49;100.00
46768;BME280;69007;48.978;18.066;2023-07-28T06:10:57;97009.16;;;17.50;100.00
46768;BME280;69007;48.978;18.066;2023-07-28T06:13:23;97003.97;;;17.58;100.00
46768;BME280;69007;48.978;18.066;2023-07-28T06:15:48;97000.41;;;17.57;100.00
46768;BME280;69007;48.978;18.066;2023-07-28T06:18:13;96981.47;;;17.47;100.00
46768;BME280;69007;48.978;18.066;2023-07-28T06:20:45;97007.66;;;17.62;100.00
46768;BME280;69007;48.978;18.066;2023-07-28T06:23:10;96988.25;;;17.58;100.00
46768;BME280;69007;48.978;18.066;2023-07-28T06:25:36;96999.88;;;17.73;100.00
46768;BME280;69007;48.978;18.066;2023-07-28T06:28:03;96990.66;;;17.68;100.00
46768;BME280;69007;48.978;18.066;2023-07-28T06:30:29;97015.09;;;17.70;100.00
46768;BME280;69007;48.978;18.066;2023-07-28T06:32:54;97010.09;;;17.72;100.00
46768;BME280;69007;48.978;18.066;2023-07-28T06:35:19;97012.19;;;17.75;100.00
46768;BME280;69007;48.978;18.066;2023-07-28T06:37:45;97006.03;;;17.69;100.00
46768;BME280;69007;48.978;18.066;2023-07-28T06:40:10;97014.63;;;17.68;100.00
46768;BME280;69007;48.978;18.066;2023-07-28T06:42:36;97003.78;;;17.63;100.00
46768;BME280;69007;48.978;18.066;2023-07-28T06:45:03;97000.53;;;17.69;100.00
46768;BME280;69007;48.978;18.066;2023-07-28T06:47:28;97003.13;;;17.75;100.00
46768;BME280;69007;48.978;18.066;2023-07-28T06:49:54;97023.34;;;17.88;100.00
46768;BME280;69007;48.978;18.066;2023-07-28T06:52:19;97005.03;;;17.83;100.00
46768;BME280;69007;48.978;18.066;2023-07-28T06:54:45;97000.03;;;17.94;100.00
46768;BME280;69007;48.978;18.066;2023-07-28T06:57:12;97016.97;;;18.13;100.00
46768;BME280;69007;48.978;18.066;2023-07-28T06:59:38;97015.34;;;18.12;100.00
46768;BME280;69007;48.978;18.066;2023-07-28T07:02:05;97001.75;;;18.07;100.00
46768;BME280;69007;48.978;18.066;2023-07-28T07:04:30;97030.38;;;18.15;100.00
46768;BME280;69007;48.978;18.066;2023-07-28T07:06:56;97031.22;;;18.15;100.00
46768;BME280;69007;48.978;18.066;2023-07-28T07:09:21;97035.34;;;18.30;100.00
46768;BME280;69007;48.978;18.066;2023-07-28T07:11:46;97022.72;;;18.29;100.00
46768;BME280;69007;48.978;18.066;2023-07-28T07:14:12;97016.28;;;18.25;100.00
46768;BME280;69007;48.978;18.066;2023-07-28T07:16:37;97003.47;;;18.20;100.00
46768;BME280;69007;48.978;18.066;2023-07-28T07:19:03;97003.41;;;18.38;100.00
46768;BME280;69007;48.978;18.066;2023-07-28T07:21:29;97010.44;;;18.56;100.00
46768;BME280;69007;48.978;18.066;2023-07-28T07:23:54;97014.34;;;18.85;100.00
46768;BME280;69007;48.978;18.066;2023-07-28T07:26:20;97003.94;;;18.82;100.00
46768;BME280;69007;48.978;18.066;2023-07-28T07:28:45;97027.00;;;18.86;100.00
46768;BME280;69007;48.978;18.066;2023-07-28T07:31:14;97004.59;;;18.79;100.00
46768;BME280;69007;48.978;18.066;2023-07-28T07:33:40;97018.53;;;18.91;100.00
46768;BME280;69007;48.978;18.066;2023-07-28T07:36:14;97017.22;;;18.89;100.00
46768;BME280;69007;48.978;18.066;2023-07-28T07:38:40;97009.84;;;18.72;100.00
46768;BME280;69007;48.978;18.066;2023-07-28T07:41:12;97028.00;;;18.73;100.00
46768;BME280;69007;48.978;18.066;2023-07-28T07:43:38;97019.44;;;18.66;100.00
46768;BME280;69007;48.978;18.066;2023-07-28T07:46:03;97028.75;;;18.61;100.00
46768;BME280;69007;48.978;18.066;2023-07-28T07:48:29;97019.69;;;18.52;100.00
46768;BME280;69007;48.978;18.066;2023-07-28T07:50:55;97004.63;;;18.49;100.00
46768;BME280;69007;48.978;18.066;2023-07-28T07:53:20;97007.63;;;18.65;100.00
46768;BME280;69007;48.978;18.066;2023-07-28T07:55:46;97002.25;;;18.69;100.00
46768;BME280;69007;48.978;18.066;2023-07-28T07:58:11;97015.28;;;19.10;100.00
46768;BME280;69007;48.978;18.066;2023-07-28T08:00:37;97018.38;;;19.30;100.00
46768;BME280;69007;48.978;18.066;2023-07-28T08:03:03;97023.75;;;19.47;100.00
46768;BME280;69007;48.978;18.066;2023-07-28T08:05:30;96999.16;;;19.55;100.00
46768;BME280;69007;48.978;18.066;2023-07-28T08:07:55;97019.56;;;19.62;100.00
46768;BME280;69007;48.978;18.066;2023-07-28T08:10:20;97013.50;;;19.48;100.00
46768;BME280;69007;48.978;18.066;2023-07-28T08:12:46;97040.34;;;19.60;100.00
46768;BME280;69007;48.978;18.066;2023-07-28T08:15:12;97021.34;;;19.46;100.00
46768;BME280;69007;48.978;18.066;2023-07-28T08:17:38;97045.03;;;19.47;100.00
46768;BME280;69007;48.978;18.066;2023-07-28T08:20:04;97036.00;;;19.38;100.00
46768;BME280;69007;48.978;18.066;2023-07-28T08:22:30;97058.53;;;19.40;100.00
46768;BME280;69007;48.978;18.066;2023-07-28T08:24:56;97049.69;;;19.34;100.00
46768;BME280;69007;48.978;18.066;2023-07-28T08:27:21;97038.19;;;19.32;100.00
46768;BME280;69007;48.978;18.066;2023-07-28T08:29:46;97025.19;;;19.32;100.00
46768;BME280;69007;48.978;18.066;2023-07-28T08:32:12;97029.03;;;19.40;100.00
46768;BME280;69007;48.978;18.066;2023-07-28T08:34:37;97042.97;;;19.56;100.00
46768;BME280;69007;48.978;18.066;2023-07-28T08:37:03;97041.50;;;19.59;100.00
46768;BME280;69007;48.978;18.066;2023-07-28T08:39:28;97025.63;;;19.56;100.00
46768;BME280;69007;48.978;18.066;2023-07-28T08:41:58;97041.03;;;19.57;100.00
46768;BME280;69007;48.978;18.066;2023-07-28T08:44:24;97043.06;;;19.47;100.00
46768;BME280;69007;48.978;18.066;2023-07-28T08:46:49;97041.19;;;19.60;100.00
46768;BME280;69007;48.978;18.066;2023-07-28T08:49:15;97047.38;;;19.78;100.00
46768;BME280;69007;48.978;18.066;2023-07-28T08:51:41;97041.75;;;19.87;100.00
46768;BME280;69007;48.978;18.066;2023-07-28T08:54:07;97035.50;;;19.78;100.00
46768;BME280;69007;48.978;18.066;2023-07-28T08:56:33;97042.66;;;19.91;100.00
46768;BME280;69007;48.978;18.066;2023-07-28T08:58:59;97058.94;;;20.05;100.00
46768;BME280;69007;48.978;18.066;2023-07-28T09:01:25;97043.16;;;20.05;100.00
46768;BME280;69007;48.978;18.066;2023-07-28T09:03:50;97037.19;;;20.03;100.00
46768;BME280;69007;48.978;18.066;2023-07-28T09:06:15;97044.78;;;20.06;100.00
46768;BME280;69007;48.978;18.066;2023-07-28T09:08:43;97029.94;;;19.99;100.00
46768;BME280;69007;48.978;18.066;2023-07-28T09:11:08;97028.88;;;19.91;100.00
46768;BME280;69007;48.978;18.066;2023-07-28T09:13:40;97032.81;;;20.02;100.00
46768;BME280;69007;48.978;18.066;2023-07-28T09:16:19;97021.31;;;20.13;100.00
46768;BME280;69007;48.978;18.066;2023-07-28T09:18:45;97018.72;;;20.41;100.00
46768;BME280;69007;48.978;18.066;2023-07-28T09:21:20;97005.38;;;20.68;100.00
46768;BME280;69007;48.978;18.066;2023-07-28T09:23:47;97012.22;;;20.98;100.00
46768;BME280;69007;48.978;18.066;2023-07-28T09:26:14;97007.34;;;21.20;100.00
46768;BME280;69007;48.978;18.066;2023-07-28T09:28:40;97008.00;;;21.29;100.00
46768;BME280;69007;48.978;18.066;2023-07-28T09:31:07;97002.78;;;21.40;98.75
46768;BME280;69007;48.978;18.066;2023-07-28T09:33:34;97006.78;;;21.14;98.66
46768;BME280;69007;48.978;18.066;2023-07-28T09:36:11;96999.34;;;20.90;98.30
46768;BME280;69007;48.978;18.066;2023-07-28T09:38:41;97007.28;;;21.04;98.67
46768;BME280;69007;48.978;18.066;2023-07-28T09:41:07;97013.00;;;21.24;98.91
46768;BME280;69007;48.978;18.066;2023-07-28T09:43:36;96994.53;;;21.56;96.59
46768;BME280;69007;48.978;18.066;2023-07-28T09:46:06;97008.88;;;21.74;92.76
46768;BME280;69007;48.978;18.066;2023-07-28T09:48:33;97002.91;;;21.72;94.39
46768;BME280;69007;48.978;18.066;2023-07-28T09:51:03;97004.00;;;21.83;93.12
46768;BME280;69007;48.978;18.066;2023-07-28T09:53:33;96980.94;;;21.79;95.58
46768;BME280;69007;48.978;18.066;2023-07-28T09:56:01;96992.72;;;21.76;95.65
46768;BME280;69007;48.978;18.066;2023-07-28T09:58:31;97002.19;;;21.75;93.20
46768;BME280;69007;48.978;18.066;2023-07-28T10:00:59;96989.97;;;21.92;93.87
46768;BME280;69007;48.978;18.066;2023-07-28T10:03:25;96990.25;;;22.03;92.80
46768;BME280;69007;48.978;18.066;2023-07-28T10:05:50;97005.00;;;22.07;91.45
46768;BME280;69007;48.978;18.066;2023-07-28T10:08:16;97005.34;;;22.05;91.72
46768;BME280;69007;48.978;18.066;2023-07-28T10:10:42;97003.28;;;22.02;91.36
46768;BME280;69007;48.978;18.066;2023-07-28T10:13:19;96993.81;;;22.03;89.10
46768;BME280;69007;48.978;18.066;2023-07-28T10:15:46;96986.31;;;22.04;88.62
46768;BME280;69007;48.978;18.066;2023-07-28T10:18:13;97005.91;;;22.11;88.78
46768;BME280;69007;48.978;18.066;2023-07-28T10:20:40;97006.09;;;22.18;88.89
46768;BME280;69007;48.978;18.066;2023-07-28T10:23:14;97004.84;;;22.32;88.94
46768;BME280;69007;48.978;18.066;2023-07-28T10:25:41;97009.25;;;22.33;87.89
46768;BME280;69007;48.978;18.066;2023-07-28T10:28:29;97004.22;;;22.38;88.46
46768;BME280;69007;48.978;18.066;2023-07-28T10:30:57;97009.25;;;22.33;89.49
46768;BME280;69007;48.978;18.066;2023-07-28T10:35:59;96995.47;;;22.52;88.48
46768;BME280;69007;48.978;18.066;2023-07-28T10:38:32;96994.00;;;22.58;85.61
46768;BME280;69007;48.978;18.066;2023-07-28T10:41:12;96988.94;;;22.60;85.78
46768;BME280;69007;48.978;18.066;2023-07-28T10:43:38;96983.81;;;22.62;85.72
46768;BME280;69007;48.978;18.066;2023-07-28T10:46:07;96997.56;;;22.75;85.84
46768;BME280;69007;48.978;18.066;2023-07-28T10:48:35;97002.38;;;22.94;85.98
46768;BME280;69007;48.978;18.066;2023-07-28T10:51:00;96983.66;;;22.91;85.32
46768;BME280;69007;48.978;18.066;2023-07-28T10:53:26;96987.31;;;22.95;85.19
46768;BME280;69007;48.978;18.066;2023-07-28T10:55:52;96987.41;;;22.98;84.94
46768;BME280;69007;48.978;18.066;2023-07-28T10:58:18;96987.47;;;23.02;85.15
46768;BME280;69007;48.978;18.066;2023-07-28T11:00:45;97003.50;;;23.09;84.78
46768;BME280;69007;48.978;18.066;2023-07-28T11:03:12;96979.41;;;23.13;84.17
46768;BME280;69007;48.978;18.066;2023-07-28T11:05:37;96969.13;;;23.13;83.94
46768;BME280;69007;48.978;18.066;2023-07-28T11:08:03;96978.09;;;23.26;83.73
46768;BME280;69007;48.978;18.066;2023-07-28T11:10:32;96966.44;;;23.36;83.23
46768;BME280;69007;48.978;18.066;2023-07-28T11:13:02;96986.66;;;23.57;82.40
46768;BME280;69007;48.978;18.066;2023-07-28T11:15:27;96993.28;;;23.71;82.79
46768;BME280;69007;48.978;18.066;2023-07-28T11:17:54;96971.28;;;23.82;79.84
46768;BME280;69007;48.978;18.066;2023-07-28T11:20:21;96974.88;;;23.83;80.49
46768;BME280;69007;48.978;18.066;2023-07-28T11:23:03;96973.78;;;23.87;81.59
46768;BME280;69007;48.978;18.066;2023-07-28T11:25:31;96974.06;;;23.82;80.02
46768;BME280;69007;48.978;18.066;2023-07-28T11:27:57;96973.59;;;23.80;79.80
46768;BME280;69007;48.978;18.066;2023-07-28T11:30:26;96964.69;;;23.90;79.69
46768;BME280;69007;48.978;18.066;2023-07-28T11:32:52;96967.09;;;23.92;80.96
46768;BME280;69007;48.978;18.066;2023-07-28T11:35:20;96947.53;;;23.85;80.30
46768;BME280;69007;48.978;18.066;2023-07-28T11:37:48;96960.81;;;23.76;82.17
46768;BME280;69007;48.978;18.066;2023-07-28T11:40:17;96952.28;;;23.84;81.59
46768;BME280;69007;48.978;18.066;2023-07-28T11:42:54;96947.53;;;23.85;83.50
46768;BME280;69007;48.978;18.066;2023-07-28T11:45:21;96940.50;;;23.91;82.32
46768;BME280;69007;48.978;18.066;2023-07-28T11:47:57;96955.13;;;23.88;80.30
46768;BME280;69007;48.978;18.066;2023-07-28T11:50:27;96944.44;;;23.90;80.75
46768;BME280;69007;48.978;18.066;2023-07-28T11:52:53;96945.59;;;23.89;79.25
46768;BME280;69007;48.978;18.066;2023-07-28T11:55:19;96944.22;;;23.79;79.58
46768;BME280;69007;48.978;18.066;2023-07-28T11:57:46;96961.91;;;23.90;79.81
46768;BME280;69007;48.978;18.066;2023-07-28T12:00:12;96954.44;;;23.95;79.72
46768;BME280;69007;48.978;18.066;2023-07-28T12:02:41;96948.59;;;23.80;80.72
46768;BME280;69007;48.978;18.066;2023-07-28T12:05:16;96936.00;;;23.63;79.39
46768;BME280;69007;48.978;18.066;2023-07-28T12:07:47;96958.50;;;23.78;78.69
46768;BME280;69007;48.978;18.066;2023-07-28T12:10:13;96948.91;;;23.75;80.11
46768;BME280;69007;48.978;18.066;2023-07-28T12:12:41;96942.72;;;23.62;88.74
46768;BME280;69007;48.978;18.066;2023-07-28T12:15:19;96949.97;;;23.47;84.09
46768;BME280;69007;48.978;18.066;2023-07-28T12:18:15;96944.16;;;23.33;85.69
46768;BME280;69007;48.978;18.066;2023-07-28T12:20:42;96950.19;;;23.19;90.40
46768;BME280;69007;48.978;18.066;2023-07-28T12:23:11;96964.84;;;23.00;91.87
46768;BME280;69007;48.978;18.066;2023-07-28T12:25:37;96965.94;;;22.95;99.46
46768;BME280;69007;48.978;18.066;2023-07-28T12:28:03;96965.19;;;22.79;100.00
46768;BME280;69007;48.978;18.066;2023-07-28T12:30:28;96982.63;;;22.63;100.00
46768;BME280;69007;48.978;18.066;2023-07-28T12:32:54;96965.63;;;22.45;100.00
46768;BME280;69007;48.978;18.066;2023-07-28T12:35:20;96962.94;;;22.33;100.00
46768;BME280;69007;48.978;18.066;2023-07-28T12:37:49;96965.16;;;22.27;100.00
46768;BME280;69007;48.978;18.066;2023-07-28T12:40:15;96951.09;;;22.20;100.00
46768;BME280;69007;48.978;18.066;2023-07-28T12:42:40;96955.50;;;22.21;100.00